sensor_id;sensor_type;location;lat;lon;timestamp;temperature;humidity
7455;HTU21D;3769;51.208;4.454;2024-02-14T00:03:05;9;97.6
7455;HTU21D;3769;51.208;4.454;2024-02-14T00:08:06;9.1;97.6
7455;HTU21D;3769;51.208;4.454;2024-02-14T00:13:05;9.3;97.6
7455;HTU21D;3769;51.208;4.454;2024-02-14T00:18:05;9.2;97.6
7455;HTU21D;3769;51.208;4.454;2024-02-14T00:23:05;9.2;97.6
7455;HTU21D;3769;51.208;4.454;2024-02-14T00:28:05;9.3;97.6
7455;HTU21D;3769;51.208;4.454;2024-02-14T00:33:05;9.2;97.6
7455;HTU21D;3769;51.208;4.454;2024-02-14T00:38:05;9.2;97.6
7455;HTU21D;3769;51.208;4.454;2024-02-14T00:43:05;9.2;97.6
7455;HTU21D;3769;51.208;4.454;2024-02-14T00:48:05;9.2;97.6
7455;HTU21D;3769;51.208;4.454;2024-02-14T00:53:05;9.2;97.6
7455;HTU21D;3769;51.208;4.454;2024-02-14T00:58:06;9.2;97.6
7455;HTU21D;3769;51.208;4.454;2024-02-14T01:03:06;9.3;97.6
7455;HTU21D;3769;51.208;4.454;2024-02-14T01:08:05;9.3;97.6
7455;HTU21D;3769;51.208;4.454;2024-02-14T01:13:05;9.3;97.6
7455;HTU21D;3769;51.208;4.454;2024-02-14T01:18:05;9.2;97.6
7455;HTU21D;3769;51.208;4.454;2024-02-14T01:23:05;9.2;97.6
7455;HTU21D;3769;51.208;4.454;2024-02-14T01:28:05;9.2;97.6
7455;HTU21D;3769;51.208;4.454;2024-02-14T01:33:05;9.1;97.6
7455;HTU21D;3769;51.208;4.454;2024-02-14T01:38:05;9;97.6
7455;HTU21D;3769;51.208;4.454;2024-02-14T01:43:05;9.1;97.6
7455;HTU21D;3769;51.208;4.454;2024-02-14T01:48:06;9.1;97.6
7455;HTU21D;3769;51.208;4.454;2024-02-14T01:53:05;9.3;97.6
7455;HTU21D;3769;51.208;4.454;2024-02-14T01:58:05;9.4;97.7
7455;HTU21D;3769;51.208;4.454;2024-02-14T02:03:05;9.2;97.6
7455;HTU21D;3769;51.208;4.454;2024-02-14T02:08:07;9.3;97.6
7455;HTU21D;3769;51.208;4.454;2024-02-14T02:13:05;9.3;97.6
7455;HTU21D;3769;51.208;4.454;2024-02-14T02:18:06;9.3;97.6
7455;HTU21D;3769;51.208;4.454;2024-02-14T02:23:05;9.4;97.7
7455;HTU21D;3769;51.208;4.454;2024-02-14T02:28:05;9.2;97.6
7455;HTU21D;3769;51.208;4.454;2024-02-14T02:33:05;9.5;97.7
7455;HTU21D;3769;51.208;4.454;2024-02-14T02:38:05;9.4;97.7
7455;HTU21D;3769;51.208;4.454;2024-02-14T02:43:05;9.3;97.7
7455;HTU21D;3769;51.208;4.454;2024-02-14T02:48:05;9.5;97.7
7455;HTU21D;3769;51.208;4.454;2024-02-14T02:53:05;9.5;97.7
7455;HTU21D;3769;51.208;4.454;2024-02-14T02:58:05;9.5;97.7
7455;HTU21D;3769;51.208;4.454;2024-02-14T03:03:07;9.5;97.7
7455;HTU21D;3769;51.208;4.454;2024-02-14T03:08:06;9.3;97.7
7455;HTU21D;3769;51.208;4.454;2024-02-14T03:13:06;9.5;97.7
7455;HTU21D;3769;51.208;4.454;2024-02-14T03:18:05;9.4;97.7
7455;HTU21D;3769;51.208;4.454;2024-02-14T03:23:05;9.5;97.7
7455;HTU21D;3769;51.208;4.454;2024-02-14T03:28:05;9.4;97.7
7455;HTU21D;3769;51.208;4.454;2024-02-14T03:33:05;9.4;97.7
7455;HTU21D;3769;51.208;4.454;2024-02-14T03:38:05;9.5;97.7
7455;HTU21D;3769;51.208;4.454;2024-02-14T03:43:05;9.4;97.7
7455;HTU21D;3769;51.208;4.454;2024-02-14T03:48:05;9.4;97.7
7455;HTU21D;3769;51.208;4.454;2024-02-14T03:53:05;9.4;97.7
7455;HTU21D;3769;51.208;4.454;2024-02-14T03:58:05;9.5;97.7
7455;HTU21D;3769;51.208;4.454;2024-02-14T04:03:05;9.4;97.7
7455;HTU21D;3769;51.208;4.454;2024-02-14T04:08:06;9.4;97.7
7455;HTU21D;3769;51.208;4.454;2024-02-14T04:13:06;9.4;97.7
7455;HTU21D;3769;51.208;4.454;2024-02-14T04:18:05;9.4;97.7
7455;HTU21D;3769;51.208;4.454;2024-02-14T04:23:05;9.3;97.7
7455;HTU21D;3769;51.208;4.454;2024-02-14T04:28:05;9.4;97.7
7455;HTU21D;3769;51.208;4.454;2024-02-14T04:33:05;9.4;97.7
7455;HTU21D;3769;51.208;4.454;2024-02-14T04:38:05;9.4;97.7
7455;HTU21D;3769;51.208;4.454;2024-02-14T04:43:05;9.5;97.7
7455;HTU21D;3769;51.208;4.454;2024-02-14T04:48:05;9.6;97.7
7455;HTU21D;3769;51.208;4.454;2024-02-14T04:53:05;9.5;97.7
7455;HTU21D;3769;51.208;4.454;2024-02-14T04:58:05;9.4;97.7
7455;HTU21D;3769;51.208;4.454;2024-02-14T05:03:05;9.5;97.7
7455;HTU21D;3769;51.208;4.454;2024-02-14T05:08:05;9.8;97.7
7455;HTU21D;3769;51.208;4.454;2024-02-14T05:13:06;9.7;97.7
7455;HTU21D;3769;51.208;4.454;2024-02-14T05:18:05;9.5;97.7
7455;HTU21D;3769;51.208;4.454;2024-02-14T05:23:05;9.6;97.7
7455;HTU21D;3769;51.208;4.454;2024-02-14T05:28:06;9.6;97.7
7455;HTU21D;3769;51.208;4.454;2024-02-14T05:33:05;9.7;97.7
7455;HTU21D;3769;51.208;4.454;2024-02-14T05:38:06;9.6;97.7
7455;HTU21D;3769;51.208;4.454;2024-02-14T05:43:05;9.7;97.7
7455;HTU21D;3769;51.208;4.454;2024-02-14T05:48:06;9.7;97.7
7455;HTU21D;3769;51.208;4.454;2024-02-14T05:53:05;9.7;97.7
7455;HTU21D;3769;51.208;4.454;2024-02-14T05:58:05;9.7;97.7
7455;HTU21D;3769;51.208;4.454;2024-02-14T06:03:05;9.7;97.7
7455;HTU21D;3769;51.208;4.454;2024-02-14T06:08:06;9.7;97.7
7455;HTU21D;3769;51.208;4.454;2024-02-14T06:13:05;9.7;97.7
7455;HTU21D;3769;51.208;4.454;2024-02-14T06:18:05;9.7;97.7
7455;HTU21D;3769;51.208;4.454;2024-02-14T06:23:06;9.8;97.7
7455;HTU21D;3769;51.208;4.454;2024-02-14T06:28:05;9.9;97.7
7455;HTU21D;3769;51.208;4.454;2024-02-14T06:33:05;10;97.8
7455;HTU21D;3769;51.208;4.454;2024-02-14T06:38:05;9.8;97.7
7455;HTU21D;3769;51.208;4.454;2024-02-14T06:43:05;9.9;97.7
7455;HTU21D;3769;51.208;4.454;2024-02-14T06:48:07;10.1;97.8
7455;HTU21D;3769;51.208;4.454;2024-02-14T06:53:06;10;97.7
7455;HTU21D;3769;51.208;4.454;2024-02-14T06:58:06;10;97.7
7455;HTU21D;3769;51.208;4.454;2024-02-14T07:03:05;10;97.8
7455;HTU21D;3769;51.208;4.454;2024-02-14T07:08:05;10.1;97.8
7455;HTU21D;3769;51.208;4.454;2024-02-14T07:13:05;10;97.8
7455;HTU21D;3769;51.208;4.454;2024-02-14T07:18:05;10.1;97.8
7455;HTU21D;3769;51.208;4.454;2024-02-14T07:23:05;10.2;97.8
7455;HTU21D;3769;51.208;4.454;2024-02-14T07:28:05;10;97.7
7455;HTU21D;3769;51.208;4.454;2024-02-14T07:33:06;10.1;97.8
7455;HTU21D;3769;51.208;4.454;2024-02-14T07:38:05;10.1;97.8
7455;HTU21D;3769;51.208;4.454;2024-02-14T07:43:05;10.2;97.8
7455;HTU21D;3769;51.208;4.454;2024-02-14T07:48:05;10.1;97.8
7455;HTU21D;3769;51.208;4.454;2024-02-14T07:53:05;10.2;97.8
7455;HTU21D;3769;51.208;4.454;2024-02-14T07:58:05;10.3;97.8
7455;HTU21D;3769;51.208;4.454;2024-02-14T08:03:05;10.3;97.8
7455;HTU21D;3769;51.208;4.454;2024-02-14T08:08:05;10.3;97.8
7455;HTU21D;3769;51.208;4.454;2024-02-14T08:13:05;10.3;97.8
7455;HTU21D;3769;51.208;4.454;2024-02-14T08:18:05;10.4;97.8
7455;HTU21D;3769;51.208;4.454;2024-02-14T08:23:05;10.5;97.8
7455;HTU21D;3769;51.208;4.454;2024-02-14T08:28:05;10.5;97.8
7455;HTU21D;3769;51.208;4.454;2024-02-14T08:33:05;10.5;97.8
7455;HTU21D;3769;51.208;4.454;2024-02-14T08:38:05;10.5;97.8
7455;HTU21D;3769;51.208;4.454;2024-02-14T08:43:05;10.6;97.8
7455;HTU21D;3769;51.208;4.454;2024-02-14T08:48:06;10.7;97.9
7455;HTU21D;3769;51.208;4.454;2024-02-14T08:53:05;10.7;97.9
7455;HTU21D;3769;51.208;4.454;2024-02-14T08:58:05;10.8;97.9
7455;HTU21D;3769;51.208;4.454;2024-02-14T09:03:05;10.7;97.9
7455;HTU21D;3769;51.208;4.454;2024-02-14T09:08:06;10.8;97.9
7455;HTU21D;3769;51.208;4.454;2024-02-14T09:13:06;10.7;97.9
7455;HTU21D;3769;51.208;4.454;2024-02-14T09:18:05;10.8;97.9
7455;HTU21D;3769;51.208;4.454;2024-02-14T09:23:05;10.7;97.9
7455;HTU21D;3769;51.208;4.454;2024-02-14T09:28:05;10.9;97.9
7455;HTU21D;3769;51.208;4.454;2024-02-14T09:33:05;10.8;97.9
7455;HTU21D;3769;51.208;4.454;2024-02-14T09:38:05;10.8;97.9
7455;HTU21D;3769;51.208;4.454;2024-02-14T09:43:07;10.8;97.9
7455;HTU21D;3769;51.208;4.454;2024-02-14T09:48:06;10.8;97.9
7455;HTU21D;3769;51.208;4.454;2024-02-14T09:53:06;10.9;97.9
7455;HTU21D;3769;51.208;4.454;2024-02-14T09:58:06;10.8;97.9
7455;HTU21D;3769;51.208;4.454;2024-02-14T10:03:06;11;97.9
7455;HTU21D;3769;51.208;4.454;2024-02-14T10:08:06;10.9;97.9
7455;HTU21D;3769;51.208;4.454;2024-02-14T10:13:06;11;97.9
7455;HTU21D;3769;51.208;4.454;2024-02-14T10:18:06;11.1;97.9
7455;HTU21D;3769;51.208;4.454;2024-02-14T10:23:07;11;97.9
7455;HTU21D;3769;51.208;4.454;2024-02-14T10:28:06;11.2;97.9
7455;HTU21D;3769;51.208;4.454;2024-02-14T10:33:05;11.3;97.9
7455;HTU21D;3769;51.208;4.454;2024-02-14T10:38:05;11.1;97.9
7455;HTU21D;3769;51.208;4.454;2024-02-14T10:43:06;11.1;97.9
7455;HTU21D;3769;51.208;4.454;2024-02-14T10:48:06;11.1;97.9
7455;HTU21D;3769;51.208;4.454;2024-02-14T10:53:05;11.1;97.9
7455;HTU21D;3769;51.208;4.454;2024-02-14T10:58:05;11.1;97.9
7455;HTU21D;3769;51.208;4.454;2024-02-14T11:03:05;11;97.9
7455;HTU21D;3769;51.208;4.454;2024-02-14T11:08:09;11.1;97.9
7455;HTU21D;3769;51.208;4.454;2024-02-14T11:13:09;11.1;97.9
7455;HTU21D;3769;51.208;4.454;2024-02-14T11:18:06;11;97.9
7455;HTU21D;3769;51.208;4.454;2024-02-14T11:23:06;10.9;97.9
7455;HTU21D;3769;51.208;4.454;2024-02-14T11:28:13;10.9;97.9
7455;HTU21D;3769;51.208;4.454;2024-02-14T11:33:13;11;97.9
7455;HTU21D;3769;51.208;4.454;2024-02-14T11:38:05;11.1;97.9
7455;HTU21D;3769;51.208;4.454;2024-02-14T11:43:13;11;97.9
7455;HTU21D;3769;51.208;4.454;2024-02-14T11:48:06;11.2;97.9
7455;HTU21D;3769;51.208;4.454;2024-02-14T11:53:05;11.1;97.9
7455;HTU21D;3769;51.208;4.454;2024-02-14T11:58:07;11.2;97.9
7455;HTU21D;3769;51.208;4.454;2024-02-14T12:03:06;11.2;97.9
7455;HTU21D;3769;51.208;4.454;2024-02-14T12:08:06;11.2;97.9
7455;HTU21D;3769;51.208;4.454;2024-02-14T12:13:06;11.3;97.9
7455;HTU21D;3769;51.208;4.454;2024-02-14T12:18:06;11.2;97.9
7455;HTU21D;3769;51.208;4.454;2024-02-14T12:23:06;11.3;97.9
7455;HTU21D;3769;51.208;4.454;2024-02-14T12:28:06;11.5;98
7455;HTU21D;3769;51.208;4.454;2024-02-14T12:33:05;11.4;98
7455;HTU21D;3769;51.208;4.454;2024-02-14T12:38:06;11.4;98
7455;HTU21D;3769;51.208;4.454;2024-02-14T12:43:05;11.5;98
7455;HTU21D;3769;51.208;4.454;2024-02-14T12:48:06;11.5;98
7455;HTU21D;3769;51.208;4.454;2024-02-14T12:53:06;11.4;98
7455;HTU21D;3769;51.208;4.454;2024-02-14T12:58:05;11.4;98
7455;HTU21D;3769;51.208;4.454;2024-02-14T13:03:05;11.5;98
7455;HTU21D;3769;51.208;4.454;2024-02-14T13:08:06;11.5;98
7455;HTU21D;3769;51.208;4.454;2024-02-14T13:13:06;11.4;98
7455;HTU21D;3769;51.208;4.454;2024-02-14T13:18:06;11.6;98
7455;HTU21D;3769;51.208;4.454;2024-02-14T13:23:05;11.5;98
7455;HTU21D;3769;51.208;4.454;2024-02-14T13:28:06;11.5;98
7455;HTU21D;3769;51.208;4.454;2024-02-14T13:33:05;11.6;98
7455;HTU21D;3769;51.208;4.454;2024-02-14T13:38:06;11.5;98
7455;HTU21D;3769;51.208;4.454;2024-02-14T13:43:06;11.5;98
7455;HTU21D;3769;51.208;4.454;2024-02-14T13:48:06;11.6;98
7455;HTU21D;3769;51.208;4.454;2024-02-14T13:53:06;11.6;98
7455;HTU21D;3769;51.208;4.454;2024-02-14T13:58:06;11.6;98
7455;HTU21D;3769;51.208;4.454;2024-02-14T14:03:05;11.7;98
7455;HTU21D;3769;51.208;4.454;2024-02-14T14:08:06;11.6;98
7455;HTU21D;3769;51.208;4.454;2024-02-14T14:13:06;11.6;98
7455;HTU21D;3769;51.208;4.454;2024-02-14T14:18:06;11.7;98
7455;HTU21D;3769;51.208;4.454;2024-02-14T14:23:06;11.7;98
7455;HTU21D;3769;51.208;4.454;2024-02-14T14:28:06;11.6;98
7455;HTU21D;3769;51.208;4.454;2024-02-14T14:33:06;11.6;98
7455;HTU21D;3769;51.208;4.454;2024-02-14T14:38:06;11.7;98
7455;HTU21D;3769;51.208;4.454;2024-02-14T14:43:06;11.8;98
7455;HTU21D;3769;51.208;4.454;2024-02-14T14:48:06;11.7;98
7455;HTU21D;3769;51.208;4.454;2024-02-14T14:53:06;11.8;98
7455;HTU21D;3769;51.208;4.454;2024-02-14T14:58:12;11.8;98
7455;HTU21D;3769;51.208;4.454;2024-02-14T15:03:07;11.9;98
7455;HTU21D;3769;51.208;4.454;2024-02-14T15:08:06;11.9;98
7455;HTU21D;3769;51.208;4.454;2024-02-14T15:13:06;11.8;98
7455;HTU21D;3769;51.208;4.454;2024-02-14T15:18:06;11.8;98
7455;HTU21D;3769;51.208;4.454;2024-02-14T15:23:06;11.7;98
7455;HTU21D;3769;51.208;4.454;2024-02-14T15:28:07;11.7;98
7455;HTU21D;3769;51.208;4.454;2024-02-14T15:33:06;11.8;98
7455;HTU21D;3769;51.208;4.454;2024-02-14T15:38:06;11.9;98
7455;HTU21D;3769;51.208;4.454;2024-02-14T15:43:06;11.8;98
7455;HTU21D;3769;51.208;4.454;2024-02-14T15:48:06;11.8;98
7455;HTU21D;3769;51.208;4.454;2024-02-14T15:53:06;11.9;98
7455;HTU21D;3769;51.208;4.454;2024-02-14T15:58:06;12;98
7455;HTU21D;3769;51.208;4.454;2024-02-14T16:03:06;12;98
7455;HTU21D;3769;51.208;4.454;2024-02-14T16:08:06;11.8;98
7455;HTU21D;3769;51.208;4.454;2024-02-14T16:13:06;11.8;98
7455;HTU21D;3769;51.208;4.454;2024-02-14T16:18:06;11.9;98
7455;HTU21D;3769;51.208;4.454;2024-02-14T16:23:06;11.7;98
7455;HTU21D;3769;51.208;4.454;2024-02-14T16:28:06;11.9;98
7455;HTU21D;3769;51.208;4.454;2024-02-14T16:33:06;11.9;98
7455;HTU21D;3769;51.208;4.454;2024-02-14T16:38:06;11.8;98
7455;HTU21D;3769;51.208;4.454;2024-02-14T16:43:06;11.9;98
7455;HTU21D;3769;51.208;4.454;2024-02-14T16:48:06;11.8;98
7455;HTU21D;3769;51.208;4.454;2024-02-14T16:53:06;11.8;98
7455;HTU21D;3769;51.208;4.454;2024-02-14T16:58:06;11.9;98
7455;HTU21D;3769;51.208;4.454;2024-02-14T17:03:06;11.8;98
7455;HTU21D;3769;51.208;4.454;2024-02-14T17:08:06;11.9;98
7455;HTU21D;3769;51.208;4.454;2024-02-14T17:13:06;11.9;98
7455;HTU21D;3769;51.208;4.454;2024-02-14T17:18:06;11.9;98
7455;HTU21D;3769;51.208;4.454;2024-02-14T17:23:06;12;98.1
7455;HTU21D;3769;51.208;4.454;2024-02-14T17:28:06;11.9;98
7455;HTU21D;3769;51.208;4.454;2024-02-14T17:33:06;12;98
7455;HTU21D;3769;51.208;4.454;2024-02-14T17:38:06;12;98.1
7455;HTU21D;3769;51.208;4.454;2024-02-14T17:43:06;11.9;98
7455;HTU21D;3769;51.208;4.454;2024-02-14T17:48:06;12;98.1
7455;HTU21D;3769;51.208;4.454;2024-02-14T17:53:06;11.9;98
7455;HTU21D;3769;51.208;4.454;2024-02-14T17:58:06;11.9;98
7455;HTU21D;3769;51.208;4.454;2024-02-14T18:03:06;11.9;98
7455;HTU21D;3769;51.208;4.454;2024-02-14T18:08:06;11.9;98
7455;HTU21D;3769;51.208;4.454;2024-02-14T18:13:06;11.9;98
7455;HTU21D;3769;51.208;4.454;2024-02-14T18:18:06;12;98.1
7455;HTU21D;3769;51.208;4.454;2024-02-14T18:23:06;11.9;98
7455;HTU21D;3769;51.208;4.454;2024-02-14T18:28:06;12;98
7455;HTU21D;3769;51.208;4.454;2024-02-14T18:33:06;12;98.1
7455;HTU21D;3769;51.208;4.454;2024-02-14T18:38:06;12.1;98.1
7455;HTU21D;3769;51.208;4.454;2024-02-14T18:43:06;12;98
7455;HTU21D;3769;51.208;4.454;2024-02-14T18:48:06;12;98.1
7455;HTU21D;3769;51.208;4.454;2024-02-14T18:53:06;12.1;98.1
7455;HTU21D;3769;51.208;4.454;2024-02-14T18:58:06;12.1;98.1
7455;HTU21D;3769;51.208;4.454;2024-02-14T19:03:06;12.1;98.1
7455;HTU21D;3769;51.208;4.454;2024-02-14T19:08:06;12;98.1
7455;HTU21D;3769;51.208;4.454;2024-02-14T19:13:06;12.2;98.1
7455;HTU21D;3769;51.208;4.454;2024-02-14T19:18:06;12.1;98.1
7455;HTU21D;3769;51.208;4.454;2024-02-14T19:23:06;12.1;98.1
7455;HTU21D;3769;51.208;4.454;2024-02-14T19:28:06;12.1;98.1
7455;HTU21D;3769;51.208;4.454;2024-02-14T19:33:06;12.2;98.1
7455;HTU21D;3769;51.208;4.454;2024-02-14T19:38:06;12.2;98.1
7455;HTU21D;3769;51.208;4.454;2024-02-14T19:43:06;12.3;98.1
7455;HTU21D;3769;51.208;4.454;2024-02-14T19:48:06;12.1;98.1
7455;HTU21D;3769;51.208;4.454;2024-02-14T19:53:06;12.2;98.1
7455;HTU21D;3769;51.208;4.454;2024-02-14T19:58:06;12.1;98.1
7455;HTU21D;3769;51.208;4.454;2024-02-14T20:03:06;12.2;98.1
7455;HTU21D;3769;51.208;4.454;2024-02-14T20:08:06;12.2;98.1
7455;HTU21D;3769;51.208;4.454;2024-02-14T20:13:06;12.2;98.1
7455;HTU21D;3769;51.208;4.454;2024-02-14T20:18:06;12.2;98.1
7455;HTU21D;3769;51.208;4.454;2024-02-14T20:23:06;12;98.1
7455;HTU21D;3769;51.208;4.454;2024-02-14T20:28:06;12.1;98.1
7455;HTU21D;3769;51.208;4.454;2024-02-14T20:33:06;12;98
7455;HTU21D;3769;51.208;4.454;2024-02-14T20:38:06;12;98
7455;HTU21D;3769;51.208;4.454;2024-02-14T20:43:06;12.1;98.1
7455;HTU21D;3769;51.208;4.454;2024-02-14T20:48:06;12.1;98.1
7455;HTU21D;3769;51.208;4.454;2024-02-14T20:53:06;12.1;98.1
7455;HTU21D;3769;51.208;4.454;2024-02-14T20:58:06;12.1;98.1
7455;HTU21D;3769;51.208;4.454;2024-02-14T21:03:06;12.1;98.1
7455;HTU21D;3769;51.208;4.454;2024-02-14T21:08:06;12.1;98.1
7455;HTU21D;3769;51.208;4.454;2024-02-14T21:13:06;12.1;98.1
7455;HTU21D;3769;51.208;4.454;2024-02-14T21:18:06;12.2;98.1
7455;HTU21D;3769;51.208;4.454;2024-02-14T21:23:06;12.1;98.1
7455;HTU21D;3769;51.208;4.454;2024-02-14T21:28:06;12.2;98.1
7455;HTU21D;3769;51.208;4.454;2024-02-14T21:33:06;12.2;98.1
7455;HTU21D;3769;51.208;4.454;2024-02-14T21:38:06;12.2;98.1
7455;HTU21D;3769;51.208;4.454;2024-02-14T21:43:06;12.1;98.1
7455;HTU21D;3769;51.208;4.454;2024-02-14T21:48:06;12.1;98.1
7455;HTU21D;3769;51.208;4.454;2024-02-14T21:53:06;12.1;98.1
7455;HTU21D;3769;51.208;4.454;2024-02-14T21:58:06;12.1;98.1
7455;HTU21D;3769;51.208;4.454;2024-02-14T22:03:06;12.1;98.1
7455;HTU21D;3769;51.208;4.454;2024-02-14T22:08:06;12;98.1
7455;HTU21D;3769;51.208;4.454;2024-02-14T22:13:06;12.1;98.1
7455;HTU21D;3769;51.208;4.454;2024-02-14T22:18:06;12.1;98.1
7455;HTU21D;3769;51.208;4.454;2024-02-14T22:23:06;12.1;98.1
7455;HTU21D;3769;51.208;4.454;2024-02-14T22:28:06;12.1;98.1
7455;HTU21D;3769;51.208;4.454;2024-02-14T22:33:06;12.1;98.1
7455;HTU21D;3769;51.208;4.454;2024-02-14T22:38:06;12.1;98.1
7455;HTU21D;3769;51.208;4.454;2024-02-14T22:43:06;12.1;98.1
7455;HTU21D;3769;51.208;4.454;2024-02-14T22:48:06;12.1;98.1
7455;HTU21D;3769;51.208;4.454;2024-02-14T22:53:06;12;98.1
7455;HTU21D;3769;51.208;4.454;2024-02-14T22:58:07;12;98.1
7455;HTU21D;3769;51.208;4.454;2024-02-14T23:03:06;12;98.1
7455;HTU21D;3769;51.208;4.454;2024-02-14T23:08:06;12.1;98.1
7455;HTU21D;3769;51.208;4.454;2024-02-14T23:13:06;12.1;98.1
7455;HTU21D;3769;51.208;4.454;2024-02-14T23:18:06;12.1;98.1
7455;HTU21D;3769;51.208;4.454;2024-02-14T23:23:06;12.3;98.1
7455;HTU21D;3769;51.208;4.454;2024-02-14T23:28:06;12.7;98.2
7455;HTU21D;3769;51.208;4.454;2024-02-14T23:33:06;12.9;98.2
7455;HTU21D;3769;51.208;4.454;2024-02-14T23:38:07;12.7;98.2
7455;HTU21D;3769;51.208;4.454;2024-02-14T23:43:06;12.5;98.1
7455;HTU21D;3769;51.208;4.454;2024-02-14T23:48:06;12.4;98.1
7455;HTU21D;3769;51.208;4.454;2024-02-14T23:53:06;12.3;98.1
7455;HTU21D;3769;51.208;4.454;2024-02-14T23:58:06;12.1;98.1
